CW8809 Weather Reports


Display with metric or nautical units.
time (UTC)temp
F
wind
direction
speed
MPH
gust
MPH
rain 1hr
in
rain 24hr
in
rain mn
in
humidity
%
barometer
mb
20171124091431 65 202 0.0 0.0 0.00 0.02 0.02 62 1016.0
20171124090427 66 112 0.0 0.0 0.00 0.02 0.02 61 1016.0
20171124085423 67 112 0.0 0.0 0.00 0.02 0.02 58 1015.6
20171124084421 67 112 0.0 0.0 0.00 0.02 0.02 58 1015.6
20171124083419 67 180 0.0 0.0 0.00 0.02 0.02 57 1015.6
20171124082417 68 135 0.0 0.0 0.00 0.02 0.02 56 1015.2
20171124081414 68 112 0.0 3.0 0.00 0.02 0.02 56 1014.9
20171124080412 68 103 3.0 3.0 0.00 0.02 0.02 56 1014.9
20171124075407 68 157 1.0 9.0 0.00 0.02 0.02 56 1014.5
20171124074300 68 90 4.0 6.0 0.00 0.02 0.02 57 1014.5
20171124073257 67 90 3.0 3.0 0.00 0.02 0.02 60 1014.4
20171124072255 67 247 1.0 3.0 0.00 0.02 0.02 60 1014.4
20171124071252 67 80 4.0 8.0 0.02 0.02 0.02 59 1014.1
20171124070217 67 157 0.0 5.0 0.02 0.02 0.02 58 1014.4
20171124065215 67 115 4.0 8.0 0.02 0.02 0.02 61 1014.1
20171124064212 68 138 4.0 18.0 0.02 0.02 0.02 60 1014.1
20171124063210 69 157 8.0 8.0 0.02 0.02 0.02 63 1013.9
20171124062207 67 135 7.0 14.0 0.02 0.02 0.02 69 1013.8
20171124061205 67 144 5.0 8.0 0.02 0.02 0.02 70 1013.5
20171124060201 70 135 0.0 2.0 0.00 0.00 0.00 63 1013.7
20171124055158 73 132 7.0 15.0 0.00 0.00 0.00 47 1013.9
20171124053951 75 135 5.0 8.0 0.00 0.00 0.00 39 1013.6
20171124052949 76 135 4.0 9.0 0.00 0.00 0.00 36 1013.0
20171124051944 78 70 9.0 25.0 0.00 0.00 0.00 35 1012.8
20171124050941 81 225 3.0 6.0 0.00 0.00 0.00 29 1012.9
20171124045908 82 247 2.0 8.0 0.00 0.00 0.00 29 1013.0
20171124044903 83 225 8.0 8.0 0.00 0.00 0.00 33 1013.2
20171124043858 83 45 3.0 11.0 0.00 0.00 0.00 30 1013.5
20171124042854 84 337 8.0 9.0 0.00 0.00 0.00 28 1013.5
20171124041819 81 337 2.0 6.0 0.00 0.00 0.00 31 1013.7
20171124040816 82 315 0.0 10.0 0.00 0.00 0.00 34 1014.2
20171124035742 84 0 3.0 3.0 0.00 0.00 0.00 29 1014.3
20171124034708 83 202 7.0 10.0 0.00 0.00 0.00 32 1014.6
20171124033704 84 321 6.0 10.0 0.00 0.00 0.00 29 1014.6
20171124032702 86 314 3.0 3.0 0.00 0.00 0.00 30 1014.8
20171124031627 84 250 3.0 8.0 0.00 0.00 0.00 33 1014.8
20171124030623 86 337 6.0 11.0 0.00 0.00 0.00 27 1014.8
20171124025620 85 270 11.0 11.0 0.00 0.00 0.00 29 1015.1
20171124024618 85 358 2.0 16.0 0.00 0.00 0.00 33 1015.5
20171124023615 85 185 4.0 17.0 0.00 0.00 0.00 32 1015.5
20171124022613 85 280 10.0 11.0 0.00 0.00 0.00 29 1015.8
20171124021611 84 337 10.0 10.0 0.00 0.00 0.00 30 1016.1
20171124020605 84 229 2.0 19.0 0.00 0.00 0.00 33 1016.1
20171124015601 82 337 1.0 18.0 0.00 0.00 0.00 33 1016.4
20171124014557 82 247 0.0 13.0 0.00 0.00 0.00 34 1016.4
20171124013555 82 223 4.0 9.0 0.00 0.00 0.00 37 1016.4
20171124012552 81 331 8.0 12.0 0.00 0.00 0.00 35 1016.7
20171124011549 80 225 4.0 5.0 0.00 0.00 0.00 37 1016.7
20171124010546 79 277 4.0 13.0 0.00 0.00 0.00 41 1017.0
20171124005543 78 311 6.0 9.0 0.00 0.00 0.00 38 1016.9
20171124004510 77 316 9.0 9.0 0.00 0.00 0.00 41 1016.9
20171124003507 78 339 6.0 7.0 0.00 0.00 0.00 40 1016.9
20171124002504 77 270 3.0 10.0 0.00 0.00 0.00 40 1016.8
20171124001500 75 351 8.0 10.0 0.00 0.00 0.00 42 1017.1
20171124000426 75 335 1.0 18.0 0.00 0.00 0.00 43 1017.1
20171123235423 74 315 3.0 15.0 0.00 0.00 0.00 44 1017.0
20171123234420 73 324 4.0 7.0 0.00 0.00 0.00 46 1017.3
20171123233417 72 317 7.0 7.0 0.00 0.00 0.00 49 1016.9
20171123232414 71 270 0.0 0.0 0.00 0.00 0.00 50 1017.2
20171123231410 70 0 0.0 0.0 0.00 0.00 0.00 53 1017.2
20171123230408 68 337 0.0 0.0 0.00 0.00 0.00 58 1017.1
20171123225404 68 337 0.0 0.0 0.00 0.00 0.00 57 1017.1
20171123224400 67 180 0.0 0.0 0.00 0.00 0.00 61 1017.1
20171123223353 65 0 0.0 0.0 0.00 0.00 0.00 61 1016.9
20171123222347 63 225 0.0 0.0 0.00 0.00 0.00 68 1016.9
20171123221342 62 225 0.0 0.0 0.00 0.00 0.00 70 1016.8
20171123220339 60 22 0.0 0.0 0.00 0.00 0.00 72 1016.7
20171123215335 59 247 0.0 0.0 0.00 0.00 0.00 77 1017.0
20171123214333 58 202 0.0 0.0 0.00 0.00 0.00 78 1017.0
20171123213329 57 225 0.0 0.0 0.00 0.00 0.00 80 1016.9
20171123212327 56 202 0.0 0.0 0.00 0.00 0.00 83 1016.9
20171123211324 55 135 0.0 0.0 0.00 0.00 0.00 84 1016.9
20171123210318 54 202 0.0 0.0 0.00 0.00 0.00 85 1016.4
20171123205315 53 135 0.0 0.0 0.00 0.00 0.00 86 1016.4
20171123204311 52 135 0.0 0.0 0.00 0.00 0.00 86 1016.4
20171123203307 52 135 0.0 0.0 0.00 0.00 0.00 86 1016.4
20171123202305 52 135 0.0 0.0 0.00 0.00 0.00 86 1016.4
20171123201302 52 135 0.0 0.0 0.00 0.00 0.00 87 1016.1
20171123200258 52 135 0.0 0.0 0.00 0.00 0.00 87 1016.1
20171123195255 51 135 0.0 0.0 0.00 0.00 0.00 87 1016.1
20171123194252 51 112 0.0 0.0 0.00 0.00 0.00 88 1016.1
20171123193246 50 112 0.0 0.0 0.00 0.00 0.00 87 1015.8
20171123192243 50 112 0.0 0.0 0.00 0.00 0.00 87 1015.7
20171123191221 50 90 0.0 0.0 0.00 0.00 0.00 87 1015.5
20171123190219 50 90 0.0 0.0 0.00 0.00 0.00 87 1015.6
20171123185216 50 90 0.0 0.0 0.00 0.00 0.00 87 1015.6
20171123184214 50 90 0.0 0.0 0.00 0.00 0.00 87 1015.2
20171123183209 50 90 0.0 0.0 0.00 0.00 0.00 87 1015.2
20171123182206 51 90 0.0 0.0 0.00 0.00 0.00 87 1015.3
20171123181203 51 90 0.0 0.0 0.00 0.00 0.00 87 1015.0
20171123180158 51 90 0.0 0.0 0.00 0.00 0.00 87 1014.9
20171123175156 51 90 0.0 0.0 0.00 0.00 0.00 87 1015.0
20171123174152 51 90 0.0 0.0 0.00 0.00 0.00 87 1015.0
20171123173148 51 90 0.0 0.0 0.00 0.00 0.00 87 1015.0
20171123172146 51 90 0.0 0.0 0.00 0.00 0.00 88 1014.7
20171123171144 51 90 0.0 0.0 0.00 0.00 0.00 87 1014.7
20171123170141 51 337 0.0 0.0 0.00 0.00 0.00 87 1014.7
20171123165137 52 337 0.0 0.0 0.00 0.00 0.00 87 1014.7
20171123164135 52 337 0.0 0.0 0.00 0.00 0.00 86 1014.7
20171123163132 52 337 0.0 0.0 0.00 0.00 0.00 86 1014.9
20171123162126 53 337 0.0 0.0 0.00 0.00 0.00 85 1014.9
20171123161053 53 337 0.0 0.0 0.00 0.00 0.00 85 1015.0
20171123160049 53 337 0.0 0.0 0.00 0.00 0.00 85 1015.1
20171123155044 53 337 0.0 0.0 0.00 0.00 0.00 85 1015.1
20171123154042 53 337 0.0 0.0 0.00 0.00 0.00 85 1015.2
20171123153038 54 337 0.0 0.0 0.00 0.00 0.00 84 1015.3
20171123152034 54 337 0.0 0.0 0.00 0.00 0.00 84 1015.4
20171123151029 54 45 0.0 0.0 0.00 0.00 0.00 83 1015.5
20171123150027 54 67 0.0 0.0 0.00 0.00 0.00 83 1015.9
20171123145024 54 67 0.0 0.0 0.00 0.00 0.00 83 1015.8
20171123144022 55 67 0.0 0.0 0.00 0.00 0.00 83 1015.8
20171123143020 55 67 0.0 0.0 0.00 0.00 0.00 82 1015.8
20171123142016 55 67 0.0 0.0 0.00 0.00 0.00 82 1015.5
20171123141012 55 67 0.0 0.0 0.00 0.00 0.00 82 1015.8
20171123140011 55 67 0.0 0.0 0.00 0.00 0.00 82 1015.8
20171123135007 56 67 0.0 0.0 0.00 0.00 0.00 81 1015.8
20171123134002 56 90 0.0 0.0 0.00 0.00 0.00 81 1015.8
20171123133000 56 90 0.0 0.0 0.00 0.00 0.00 81 1016.1
20171123131957 56 90 0.0 0.0 0.00 0.00 0.00 80 1016.1
20171123130952 57 90 0.0 0.0 0.00 0.00 0.00 80 1016.4
20171123125948 57 90 0.0 0.0 0.00 0.00 0.00 80 1016.0
20171123124946 57 67 0.0 0.0 0.00 0.00 0.00 79 1016.3
20171123123942 57 67 0.0 0.0 0.00 0.00 0.00 78 1015.9
20171123122940 57 67 0.0 0.0 0.00 0.00 0.00 77 1015.9
20171123121936 57 67 0.0 0.0 0.00 0.00 0.00 77 1015.9
20171123120903 58 67 0.0 0.0 0.00 0.00 0.00 77 1016.2
20171123115900 58 67 0.0 0.0 0.00 0.00 0.00 76 1016.2
20171123114856 58 67 0.0 0.0 0.00 0.00 0.00 75 1016.2
20171123113852 58 315 0.0 0.0 0.00 0.00 0.00 74 1016.5
20171123112850 59 315 0.0 0.0 0.00 0.00 0.00 73 1016.4
20171123111846 59 315 0.0 0.0 0.00 0.00 0.00 72 1016.4
20171123110843 59 315 0.0 0.0 0.00 0.00 0.00 71 1016.4
20171123105838 60 337 0.0 0.0 0.00 0.00 0.00 71 1016.0
20171123104836 60 112 0.0 0.0 0.00 0.00 0.00 69 1016.0
20171123103832 60 67 0.0 0.0 0.00 0.00 0.00 68 1015.9
20171123102828 61 112 0.0 0.0 0.00 0.00 0.00 68 1015.9
20171123101825 61 112 0.0 0.0 0.00 0.00 0.00 66 1015.8
20171123100822 61 112 0.0 0.0 0.00 0.00 0.00 66 1015.8
20171123095819 62 337 1.0 1.0 0.00 0.00 0.00 65 1015.5
20171123094816 63 0 0.0 0.0 0.00 0.00 0.00 65 1015.5
20171123093814 63 112 0.0 3.0 0.00 0.00 0.00 63 1015.5
20171123092811 64 225 0.0 0.0 0.00 0.00 0.00 61 1015.5